KCFV - Coffeyville, Kansas, USA
Distance from station: ENE 93mi, 150km
Updated: Tue, 28-Sep-2021 8:52am PDT
Clear
Clear
 Wind from SSE
Wind: SSE 9 mph , 15 km/h
Temperature: 81°F , 27°C
Heat Index: 82°F , 28°C
Dew Point: 63°F , 17°C
Humidity: 54%
Barometer: 29.92 inHg , 1013.2 hPa
Clouds: Clear
Visibility: 10 miles , 16 km
2021/09/28 15:52 KCFV 281552Z AUTO 16008KT 10SM CLR 27/17 A2992 RMK AO2 SLP123 T02720167
KIDP - Independence, Kansas, USA
Distance from station: NE 86mi, 138km
Updated: Tue, 28-Sep-2021 9:15am PDT
Clear
Clear
 Wind from S
Wind: S 7 mph , 11 km/h
Temperature: 79°F , 26°C
Dew Point: 63°F , 17°C
Humidity: 58%
Barometer: 29.92 inHg , 1013.2 hPa
Clouds: Clear
Visibility: 10 miles , 16 km
2021/09/28 16:15 KIDP 281615Z AUTO 17006KT 10SM CLR 26/17 A2992 RMK AO2 T02570167
 
KIAB - Mcconnell Afb, Kansas, USA
Distance from station: N 84mi, 135km
Updated: Tue, 28-Sep-2021 8:56am PDT
Few Clouds
Few Clouds
 Wind from SSW
Wind: SSW 10 mph , 17 km/h
Temperature: 79°F , 26°C
Dew Point: 57°F , 14°C
Humidity: 48%
Barometer: 29.89 inHg , 1012.2 hPa
Clouds: Few Clouds
Visibility: 10 miles , 16 km
Cloud details: Few Clouds 19000 ft
2021/09/28 15:56 KIAB 281556Z AUTO 21009KT 10SM FEW190 26/14 A2989 RMK AO2 SLP112 T02630144 $
KICT - Wichita, Kansas, USA
Distance from station: NNW 88mi, 142km
Updated: Tue, 28-Sep-2021 8:53am PDT
Partly Cloudy
Partly Cloudy
 Wind from SSE
Wind: SSE 10 mph , 17 km/h
Temperature: 79°F , 26°C
Dew Point: 61°F , 16°C
Humidity: 54%
Barometer: 29.89 inHg , 1012.2 hPa
Clouds: Partly Cloudy
Visibility: 10 miles , 16 km
Cloud details: Partly Cloudy 22000 ft
2021/09/28 15:53 KICT 281553Z 16009KT 10SM SCT220 26/16 A2989 RMK AO2 SLP107 T02610156
 
KAAO - Wichita/Jabara, Kansas, USA
Distance from station: N 93mi, 149km
Updated: Tue, 28-Sep-2021 8:54am PDT
Clear
Clear
 Wind from S
Wind: S 13 mph , 20 km/h
Temperature: 81°F , 27°C
Heat Index: 81°F , 27°C
Dew Point: 59°F , 15°C
Humidity: 48%
Barometer: 29.90 inHg , 1012.5 hPa
Clouds: Clear
Visibility: 10 miles , 16 km
2021/09/28 15:54 KAAO 281554Z AUTO 19011KT 10SM CLR 27/15 A2990 RMK AO2 SLP110 T02670150
KWLD - Winfield/Arkansa, Kansas, USA
Distance from station: N 52mi, 84km
Updated: Tue, 28-Sep-2021 8:54am PDT
Clear
Clear
 Wind from SE
Wind: SE 8 mph , 13 km/h
Temperature: 81°F , 27°C
Heat Index: 82°F , 28°C
Dew Point: 63°F , 17°C
Humidity: 54%
Barometer: 29.90 inHg , 1012.5 hPa
Clouds: Clear
Visibility: 10 miles , 16 km
2021/09/28 15:54 KWLD 281554Z AUTO 14007KT 10SM CLR 27/17 A2990 RMK AO2 SLP115 T02720167
 
KAVK - Alva, Oklahoma, USA
Distance from station: WNW 94mi, 152km
Updated: Tue, 28-Sep-2021 9:35am PDT
Clear
Clear
 Wind from SE
Wind: SE 6 mph , 9 km/h
Temperature: 84°F , 29°C
Heat Index: 83°F , 28°C
Dew Point: 57°F , 14°C
Humidity: 40%
Barometer: 29.87 inHg , 1011.5 hPa
Clouds: Clear
Visibility: 10 miles , 16 km
2021/09/28 16:35 KAVK 281635Z AUTO 13005KT 10SM CLR 29/14 A2987 RMK AO2
KBVO - Bartlesville, Oklahoma, USA
Distance from station: ENE 61mi, 98km
Updated: Tue, 28-Sep-2021 8:53am PDT
Clear
Clear
 Wind from SSE
Wind: SSE 5 mph , 7 km/h
Temperature: 75°F , 24°C
Dew Point: 63°F , 17°C
Humidity: 65%
Barometer: 29.92 inHg , 1013.2 hPa
Clouds: Clear
Visibility: 10 miles , 16 km
2021/09/28 15:53 KBVO 281553Z AUTO 15004KT 10SM CLR 24/17 A2992 RMK AO2 SLP123 T02440172
 
KBKN - Blackwell, Oklahoma, USA
Distance from station: NW 29mi, 47km
Updated: Tue, 28-Sep-2021 9:35am PDT
Clear
Clear
 Wind from SSE
Wind: SSE 12 mph , 19 km/h
Barometer: 29.88 inHg , 1011.9 hPa
Clouds: Clear
Visibility: 10 miles , 16 km
2021/09/28 16:35 KBKN 281635Z AUTO 16010KT 10SM CLR A2988 RMK AO2
KGCM - Claremore, Oklahoma, USA
Distance from station: E 86mi, 138km
Updated: Tue, 28-Sep-2021 9:15am PDT
Clear
Clear
 Wind from SSE
Wind: SSE 7 mph , 11 km/h
Temperature: 81°F , 27°C
Heat Index: 81°F , 27°C
Dew Point: 57°F , 14°C
Humidity: 45%
Barometer: 29.94 inHg , 1013.9 hPa
Clouds: Clear
Visibility: 7 miles , 11 km
2021/09/28 16:15 KGCM 281615Z AUTO 15006KT 7SM CLR 27/14 A2994 RMK AO2
 
KCQB - Chandler, Oklahoma, USA
Distance from station: SSE 50mi, 80km
Updated: Tue, 28-Sep-2021 9:15am PDT
Clear
Clear
 Wind from S
Wind: S 5 mph , 7 km/h
Temperature: 82°F , 28°C
Heat Index: 83°F , 28°C
Dew Point: 63°F , 17°C
Humidity: 51%
Barometer: 29.90 inHg , 1012.5 hPa
Clouds: Clear
Visibility: 7 miles , 11 km
2021/09/28 16:15 KCQB 281615Z AUTO 17004KT 7SM CLR 28/17 A2990 RMK AO2 T02750169
KCUH - Cushing, Oklahoma, USA
Distance from station: SSE 35mi, 57km
Updated: Tue, 28-Sep-2021 9:15am PDT
Clear
Clear
 Wind from SE
Wind: SE 5 mph , 7 km/h
Temperature: 81°F , 27°C
Heat Index: 82°F , 28°C
Dew Point: 63°F , 17°C
Humidity: 54%
Barometer: 29.88 inHg , 1011.9 hPa
Clouds: Clear
Visibility: 10 miles , 16 km
2021/09/28 16:15 KCUH 281615Z AUTO 14004KT 10SM CLR 27/17 A2988 RMK AO2 T02690167
 
KRQO - El Reno Muni, Oklahoma, USA
Distance from station: SW 85mi, 137km
Updated: Tue, 28-Sep-2021 9:15am PDT
Clear
Clear
 Wind from SSE
Wind: SSE 12 mph , 19 km/h
Temperature: 81°F , 27°C
Heat Index: 82°F , 28°C
Dew Point: 61°F , 16°C
Humidity: 51%
Barometer: 29.89 inHg , 1012.2 hPa
Clouds: Clear
Visibility: 10 miles , 16 km
2021/09/28 16:15 KRQO 281615Z AUTO 16010KT 10SM CLR 27/16 A2989 RMK AO2 T02740162
KEND - Enid/Vance Afb, Oklahoma, USA
Distance from station: W 50mi, 81km
Updated: Tue, 28-Sep-2021 8:56am PDT
Clear
Clear
 Wind from SSE
Wind: SSE 10 mph , 17 km/h
Temperature: 81°F , 27°C
Heat Index: 82°F , 28°C
Dew Point: 61°F , 16°C
Humidity: 51%
Barometer: 29.87 inHg , 1011.5 hPa
Clouds: Clear
Visibility: 10 miles , 16 km
2021/09/28 15:56 KEND 281556Z AUTO 16009KT 10SM CLR 27/16 A2987 RMK AO2 SLP103 T02680155 $
 
KWDG - Enid/Woodring, Oklahoma, USA
Distance from station: W 42mi, 67km
Updated: Tue, 28-Sep-2021 8:45am PDT
Partly Cloudy
Partly Cloudy
 Wind from S
Wind: S 10 mph , 17 km/h
Temperature: 81°F , 27°C
Heat Index: 81°F , 27°C
Dew Point: 59°F , 15°C
Humidity: 48%
Barometer: 29.87 inHg , 1011.5 hPa
Clouds: Partly Cloudy
Visibility: 10 miles , 16 km
Cloud details: Partly Cloudy 20000 ft
Partly Cloudy 25000 ft
2021/09/28 15:45 KWDG 281545Z 18009KT 10SM SCT200 SCT250 27/15 A2987
KGOK - Guthrie, Oklahoma, USA
Distance from station: SSW 44mi, 71km
Updated: Tue, 28-Sep-2021 8:53am PDT
Clear
Clear
 Wind from varies
Wind: varies 3 mph , 6 km/h
Temperature: 81°F , 27°C
Heat Index: 82°F , 28°C
Dew Point: 63°F , 17°C
Humidity: 54%
Barometer: 29.88 inHg , 1011.9 hPa
Clouds: Clear
Visibility: 10 miles , 16 km
2021/09/28 15:53 KGOK 281553Z AUTO VRB03KT 10SM CLR 27/17 A2988 RMK AO2 SLP106 T02670167
 
KOUN - Norman/Westheime, Oklahoma, USA
Distance from station: SSW 84mi, 136km
Updated: Tue, 28-Sep-2021 8:47am PDT
Clear
Clear
 Wind from SSE
Wind: SSE 8 mph , 13 km/h
Temperature: 79°F , 26°C
Dew Point: 61°F , 16°C
Humidity: 54%
Barometer: 29.87 inHg , 1011.5 hPa
Clouds: Clear
Visibility: 10 miles , 16 km
2021/09/28 15:47 KOUN 281547Z 16007KT 10SM CLR 26/16 A2987
KOKC - Oklahoma City, Oklahoma, USA
Distance from station: SSW 78mi, 126km
Updated: Tue, 28-Sep-2021 8:52am PDT
Few Clouds
Few Clouds
 Wind from S
Wind: S 8 mph , 13 km/h
Temperature: 79°F , 26°C
Dew Point: 61°F , 16°C
Humidity: 54%
Barometer: 29.88 inHg , 1011.9 hPa
Clouds: Few Clouds
Visibility: 10 miles , 16 km
Cloud details: Few Clouds 25000 ft
2021/09/28 15:52 KOKC 281552Z 17007KT 10SM FEW250 26/16 A2988 RMK AO2 SLP103 T02560156
 
KPWA - Okla City/Wiley, Oklahoma, USA
Distance from station: SSW 70mi, 113km
Updated: Tue, 28-Sep-2021 8:53am PDT
Clear
Clear
 Wind from S
Wind: S 8 mph , 13 km/h
Temperature: 81°F , 27°C
Heat Index: 82°F , 28°C
Dew Point: 61°F , 16°C
Humidity: 51%
Barometer: 29.87 inHg , 1011.5 hPa
Clouds: Clear
Visibility: 10 miles , 16 km
2021/09/28 15:53 KPWA 281553Z 18007KT 10SM CLR 27/16 A2987 RMK AO2 SLP099 T02720161
KRCE - Okla City/Page, Oklahoma, USA
Distance from station: SW 78mi, 126km
Updated: Tue, 28-Sep-2021 9:35am PDT
Clear
Clear
 Wind from S
Wind: S 10 mph , 17 km/h
Temperature: 84°F , 29°C
Heat Index: 84°F , 29°C
Dew Point: 61°F , 16°C
Humidity: 45%
Barometer: 29.87 inHg , 1011.5 hPa
Clouds: Clear
Visibility: 10 miles , 16 km
2021/09/28 16:35 KRCE 281635Z AUTO 17009KT 10SM CLR 29/16 A2987 RMK AO2
 
KOKM - Okmulgee, Oklahoma, USA
Distance from station: SE 79mi, 127km
Updated: Tue, 28-Sep-2021 9:15am PDT
Clear
Clear
 Wind from SSE
Wind: SSE 8 mph , 13 km/h, Gust: 20 mph , 31 km/h
Temperature: 84°F , 29°C
Heat Index: 85°F , 29°C
Dew Point: 63°F , 17°C
Humidity: 48%
Barometer: 29.91 inHg , 1012.9 hPa
Clouds: Clear
Visibility: 10 miles , 16 km
2021/09/28 16:15 KOKM 281615Z AUTO 16007G17KT 10SM CLR 29/17 A2991 RMK AO2 T02860168
KPNC - Ponca City, Oklahoma, USA
Distance from station: N 22mi, 36km
Updated: Tue, 28-Sep-2021 8:53am PDT
Clear
Clear
 Wind from SE
Wind: SE 13 mph , 20 km/h
Temperature: 81°F , 27°C
Heat Index: 82°F , 28°C
Dew Point: 61°F , 16°C
Humidity: 51%
Barometer: 29.88 inHg , 1011.9 hPa
Clouds: Clear
Visibility: 10 miles , 16 km
2021/09/28 15:53 KPNC 281553Z AUTO 14011KT 10SM CLR 27/16 A2988 RMK AO2 SLP105 T02670161
 
KSNL - Shawnee, Oklahoma, USA
Distance from station: S 74mi, 119km
Updated: Tue, 28-Sep-2021 9:15am PDT
Clear
Clear
 Wind from S
Wind: S 7 mph , 11 km/h
Temperature: 81°F , 27°C
Heat Index: 81°F , 27°C
Dew Point: 57°F , 14°C
Humidity: 45%
Barometer: 29.89 inHg , 1012.2 hPa
Clouds: Clear
Visibility: 10 miles , 16 km
2021/09/28 16:15 KSNL 281615Z AUTO 17006KT 10SM CLR 27/14 A2989 RMK AO2 T02700141
KSWO - Stillwater, Oklahoma, USA
Distance from station: S 17mi, 28km
Updated: Tue, 28-Sep-2021 8:53am PDT
Clear
Clear
 Wind from SSE
Wind: SSE 8 mph , 13 km/h
Temperature: 82°F , 28°C
Heat Index: 82°F , 28°C
Dew Point: 61°F , 16°C
Humidity: 48%
Barometer: 29.89 inHg , 1012.2 hPa
Clouds: Clear
Visibility: 10 miles , 16 km
2021/09/28 15:53 KSWO 281553Z 15007KT 10SM CLR 28/16 A2989 RMK AO2 SLP106 T02830156
 
KTIK - Tinker Afb, Oklahoma, USA
Distance from station: SSW 72mi, 115km
Updated: Tue, 28-Sep-2021 8:56am PDT
Clear
Clear
 Wind from S
Wind: S 8 mph , 13 km/h
Temperature: 79°F , 26°C
Dew Point: 61°F , 16°C
Humidity: 54%
Barometer: 29.87 inHg , 1011.5 hPa
Clouds: Clear
Visibility: 10 miles , 16 km
2021/09/28 15:56 KTIK 281556Z AUTO 19007KT 10SM CLR 26/16 A2987 RMK AO2 SLP109 T02640157
KTUL - Tulsa, Oklahoma, USA
Distance from station: ESE 65mi, 105km
Updated: Tue, 28-Sep-2021 8:53am PDT
Partly Cloudy
Partly Cloudy
 Wind from SSE
Wind: SSE 10 mph , 17 km/h
Temperature: 81°F , 27°C
Heat Index: 82°F , 28°C
Dew Point: 63°F , 17°C
Humidity: 54%
Barometer: 29.91 inHg , 1012.9 hPa
Clouds: Partly Cloudy
Visibility: 10 miles , 16 km
Cloud details: Few Clouds 15000 ft
Partly Cloudy 20000 ft
2021/09/28 15:53 KTUL 281553Z 15009KT 10SM FEW150 SCT200 27/17 A2991 RMK AO2 SLP119 T02720167

Metar display script from Saratoga-Weather.org